Time;durP1;ratioP1;P1;durP2;ratioP2;P2;SDS_P1;SDS_P2;PMS_P1;PMS_P2;Temp;Humidity;BMP_temperature;BMP_pressure;BME280_temperature;BME280_humidity;BME280_pressure;Samples;Min_cycle;Max_cycle;Signal;HPM_P1;HPM_P2
2022/03/19 00:00:15;;;;;;;;;4.00;4.00;;;;;10.44;69.46;103015.41;4972748;28;45405;-77
2022/03/19 00:02:40;;;;;;;;;5.50;4.25;;;;;10.53;68.29;103039.56;4956700;28;45518;-76
2022/03/19 00:05:07;;;;;;;;;7.50;5.00;;;;;10.59;71.04;103052.09;4937930;28;46050;-77
2022/03/19 00:07:33;;;;;;;;;4.00;4.00;;;;;10.65;72.52;103050.09;4955833;28;45522;-76
2022/03/19 00:09:58;;;;;;;;;8.00;4.00;;;;;10.64;72.65;103063.72;4966585;28;45489;-77
2022/03/19 00:12:24;;;;;;;;;5.00;3.00;;;;;10.58;76.64;103053.94;4975196;28;45497;-76
2022/03/19 00:14:49;;;;;;;;;4.00;4.00;;;;;10.57;77.42;103045.81;4966162;28;45439;-79
2022/03/19 00:17:14;;;;;;;;;7.25;4.00;;;;;9.28;71.80;102826.78;4970274;28;45407;-79
2022/03/19 00:19:40;;;;;;;;;6.00;4.33;;;;;10.48;71.33;103033.38;4964921;28;45639;-76
2022/03/19 00:22:06;;;;;;;;;4.00;4.00;;;;;10.51;74.80;103044.19;4980729;28;45422;-78
2022/03/19 00:24:34;;;;;;;;;4.75;4.00;;;;;10.58;77.58;103062.09;4972737;28;46672;-77
2022/03/19 00:27:00;;;;;;;;;4.00;3.33;;;;;10.57;71.29;103063.03;4974630;28;45442;-77
2022/03/19 00:29:25;;;;;;;;;4.33;3.00;;;;;10.40;68.61;103035.47;4971027;28;45688;-76
2022/03/19 00:31:50;;;;;;;;;5.00;5.00;;;;;10.21;71.23;102999.72;4974833;28;45370;-76
2022/03/19 00:34:16;;;;;;;;;4.00;4.00;;;;;10.18;75.51;103007.06;4974632;28;45546;-76
2022/03/19 00:36:42;;;;;;;;;4.33;3.00;;;;;10.24;74.54;103012.34;4964166;28;45383;-78
2022/03/19 00:39:07;;;;;;;;;3.50;3.50;;;;;10.01;71.14;102973.13;4960561;28;45811;-76
2022/03/19 00:41:33;;;;;;;;;5.50;3.00;;;;;10.48;73.57;103054.25;4986960;28;45660;-76
2022/03/19 00:43:58;;;;;;;;;5.00;3.00;;;;;10.46;70.41;103051.59;4992530;28;45304;-76
2022/03/19 00:46:23;;;;;;;;;3.67;3.67;;;;;10.46;69.94;103061.59;4987781;28;44736;-76
2022/03/19 00:48:49;;;;;;;;;4.25;4.25;;;;;10.38;71.57;103049.09;4961935;28;45527;-78
2022/03/19 00:51:17;;;;;;;;;3.50;3.50;;;;;10.36;70.35;103041.91;4972517;28;45558;-76
2022/03/19 00:53:43;;;;;;;;;4.00;3.00;;;;;10.41;78.44;103053.56;4974608;28;45479;-78
2022/03/19 00:56:08;;;;;;;;;3.67;2.00;;;;;10.41;71.58;103049.94;4944315;28;45859;-77
2022/03/19 00:58:33;;;;;;;;;3.00;3.00;;;;;10.32;71.14;103034.78;4937657;28;45403;-77
2022/03/19 01:00:59;;;;;;;;;4.50;3.25;;;;;10.21;70.73;103017.88;4964118;28;45486;-77
2022/03/19 01:03:24;;;;;;;;;4.00;2.00;;;;;10.36;73.50;103044.66;4967281;28;45492;-77
2022/03/19 01:05:49;;;;;;;;;3.75;2.75;;;;;10.08;84.34;102990.13;4955864;28;45380;-76
2022/03/19 01:08:15;;;;;;;;;2.75;2.50;;;;;9.85;73.12;102944.63;4957767;28;45654;-77
2022/03/19 01:10:40;;;;;;;;;3.50;3.50;;;;;9.60;76.31;102910.00;4955004;28;45462;-77
2022/03/19 01:13:06;;;;;;;;;4.00;2.75;;;;;9.99;75.10;102979.56;4957625;28;46188;-76
2022/03/19 01:15:32;;;;;;;;;3.00;3.00;;;;;10.29;76.02;103037.59;4954985;28;45461;-76
2022/03/19 01:18:00;;;;;;;;;4.33;3.00;;;;;10.24;74.53;103035.03;4954396;28;45268;-77
2022/03/19 01:20:26;;;;;;;;;2.25;1.25;;;;;10.09;72.66;103014.56;4964277;28;46621;-76
2022/03/19 01:22:51;;;;;;;;;4.25;4.00;;;;;10.21;77.64;103036.91;4970638;28;46293;-76
2022/03/19 01:25:18;;;;;;;;;5.00;3.75;;;;;9.69;75.70;102937.84;4958871;28;45568;-75
2022/03/19 01:27:45;;;;;;;;;2.00;1.00;;;;;10.17;73.16;103025.22;4957566;28;45387;-75
2022/03/19 01:30:12;;;;;;;;;3.75;3.75;;;;;9.49;76.43;102920.28;4952952;28;45569;-75
2022/03/19 01:32:38;;;;;;;;;2.75;2.00;;;;;10.04;72.57;103018.38;4958874;28;45574;-76
2022/03/19 01:35:04;;;;;;;;;3.00;3.00;;;;;9.24;71.13;102875.75;4952747;28;45462;-75
2022/03/19 01:37:30;;;;;;;;;2.75;2.75;;;;;10.04;74.13;103031.97;4971953;28;45937;-77
2022/03/19 01:39:56;;;;;;;;;3.00;3.00;;;;;10.02;78.26;103017.50;4958207;28;45438;-77
2022/03/19 01:42:24;;;;;;;;;3.00;2.00;;;;;9.80;73.47;102976.47;4965137;28;45398;-76
2022/03/19 01:44:49;;;;;;;;;4.00;4.00;;;;;9.72;69.88;102965.81;4973189;28;45370;-76
2022/03/19 01:47:15;;;;;;;;;3.75;2.75;;;;;9.72;72.03;102962.19;4973693;28;45351;-76
2022/03/19 01:49:41;;;;;;;;;3.50;3.50;;;;;9.23;76.95;102885.72;4971402;28;45423;-75
2022/03/19 01:52:07;;;;;;;;;4.00;3.00;;;;;9.58;70.45;102947.19;4958084;28;45271;-77
2022/03/19 01:54:36;;;;;;;;;4.00;3.00;;;;;9.23;72.05;102895.69;4960839;28;45629;-76
2022/03/19 01:57:02;;;;;;;;;3.00;3.00;;;;;9.89;80.04;103008.81;4960948;28;45500;-76
2022/03/19 01:59:34;;;;;;;;;3.25;2.00;;;;;9.70;79.53;102973.13;4976127;28;45307;-75
2022/03/19 02:02:02;;;;;;;;;4.75;3.00;;;;;9.89;72.71;103008.81;4971570;28;45449;-75
2022/03/19 02:04:28;;;;;;;;;5.25;2.25;;;;;9.89;74.17;103006.09;4973514;28;45644;-77
2022/03/19 02:06:54;;;;;;;;;3.50;3.00;;;;;9.87;69.98;103000.69;4960753;28;45693;-76
2022/03/19 02:09:20;;;;;;;;;4.00;2.33;;;;;9.81;71.76;102991.81;4953697;28;45576;-75
2022/03/19 02:11:45;;;;;;;;;3.75;3.75;;;;;9.70;71.90;102980.38;4936185;28;46128;-75
2022/03/19 02:14:11;;;;;;;;;3.67;2.00;;;;;9.74;72.55;103001.09;4953421;28;45340;-76
2022/03/19 02:16:36;;;;;;;;;3.75;3.00;;;;;9.16;72.43;102902.19;4965193;28;45386;-76
2022/03/19 02:19:02;;;;;;;;;2.50;2.50;;;;;9.42;70.62;102951.25;4972797;28;45386;-75
2022/03/19 02:21:41;;;;;;;;;5.75;4.00;;;;;8.88;79.59;102862.25;4973080;28;45319;-76
2022/03/19 02:26:51;;;;;;;;;2.75;2.75;;;;;9.32;76.71;102937.00;4969586;28;45671;-77
2022/03/19 02:29:16;;;;;;;;;4.00;4.00;;;;;9.55;77.58;102976.25;4974513;28;45547;-76
2022/03/19 02:31:44;;;;;;;;;3.25;3.25;;;;;9.63;80.45;102979.66;4959186;28;46345;-77
2022/03/19 02:34:10;;;;;;;;;4.50;3.50;;;;;9.54;74.58;102961.78;4954919;28;45380;-77
2022/03/19 02:36:42;;;;;;;;;3.75;2.75;;;;;9.59;74.82;102962.56;4953355;28;45437;-76
2022/03/19 02:39:08;;;;;;;;;4.00;4.00;;;;;9.52;77.58;102955.47;4958956;28;45319;-75
2022/03/19 02:41:34;;;;;;;;;7.75;3.00;;;;;9.40;75.88;102939.53;4972752;28;46054;-77
2022/03/19 02:43:59;;;;;;;;;4.25;3.00;;;;;9.57;77.47;102967.09;4965197;28;45459;-78
2022/03/19 02:46:41;;;;;;;;;6.25;4.00;;;;;9.55;75.27;102965.38;4976839;28;44766;-81
2022/03/19 02:49:07;;;;;;;;;3.00;3.00;;;;;9.38;77.01;102949.56;4972360;28;45520;-79
2022/03/19 02:51:37;;;;;;;;;4.00;2.75;;;;;9.51;76.93;102966.41;4972426;28;46125;-79
2022/03/19 02:54:08;;;;;;;;;3.25;3.25;;;;;9.48;76.17;102966.47;4972730;28;45511;-82
2022/03/19 02:56:35;;;;;;;;;5.00;4.00;;;;;9.49;79.78;102963.75;4971085;28;45454;-83
2022/03/19 02:59:18;;;;;;;;;4.00;4.00;;;;;9.22;80.25;102921.03;4962505;28;45522;-81
2022/03/19 03:01:51;;;;;;;;;3.75;3.75;;;;;9.32;77.54;102937.00;4960389;28;45370;-83
2022/03/19 03:04:18;;;;;;;;;6.25;5.00;;;;;9.40;76.25;102955.84;4953171;28;45399;-81
2022/03/19 03:06:45;;;;;;;;;3.25;3.25;;;;;9.18;78.70;102928.38;4957910;28;45252;-78
2022/03/19 03:09:12;;;;;;;;;4.00;3.25;;;;;9.05;80.93;102906.09;4955413;28;45439;-82
2022/03/19 03:11:38;;;;;;;;;6.50;5.00;;;;;9.16;80.62;102927.50;4966167;28;45422;-77
2022/03/19 03:14:05;;;;;;;;;4.25;3.75;;;;;8.98;77.48;102906.28;4976836;28;45438;-76
2022/03/19 03:16:31;;;;;;;;;7.00;5.00;;;;;8.99;78.80;102910.78;4975553;28;45311;-76
2022/03/19 03:18:57;;;;;;;;;5.00;5.00;;;;;8.77;82.27;102869.75;4966363;28;45521;-76
2022/03/19 03:21:24;;;;;;;;;7.00;7.00;;;;;9.30;81.76;102954.28;4959579;28;45479;-79
2022/03/19 03:23:49;;;;;;;;;7.75;4.75;;;;;8.95;87.14;102899.13;4956028;28;45396;-75
2022/03/19 03:26:14;;;;;;;;;5.50;5.50;;;;;9.18;80.22;102933.81;4964332;28;45513;-75
2022/03/19 03:28:40;;;;;;;;;6.50;4.50;;;;;8.91;80.00;102894.69;4979368;28;45332;-76
2022/03/19 03:31:06;;;;;;;;;8.75;5.25;;;;;9.17;79.67;102940.13;4962312;28;45297;-75
2022/03/19 03:33:32;;;;;;;;;7.00;7.00;;;;;9.19;78.97;102940.13;4971354;28;45432;-76
2022/03/19 03:35:57;;;;;;;;;7.50;5.00;;;;;9.17;78.70;102936.53;4958734;28;45403;-75
2022/03/19 03:38:22;;;;;;;;;6.25;6.25;;;;;8.54;83.55;102819.69;4976387;28;45283;-76
2022/03/19 03:40:48;;;;;;;;;7.00;5.00;;;;;8.90;81.25;102892.03;4970522;28;46644;-75
2022/03/19 03:43:13;;;;;;;;;5.25;5.25;;;;;8.74;82.37;102868.00;4957507;28;45356;-76
2022/03/19 03:45:39;;;;;;;;;8.25;7.75;;;;;9.04;84.79;102920.59;4967022;28;45252;-75
2022/03/19 03:48:04;;;;;;;;;7.00;5.25;;;;;9.02;84.08;102918.81;4961009;28;45515;-75
2022/03/19 03:50:31;;;;;;;;;11.00;7.75;;;;;8.57;79.47;102856.72;4944730;28;46199;-75
2022/03/19 03:52:57;;;;;;;;;7.75;7.00;;;;;8.86;81.54;102912.00;4973152;28;45413;-76
2022/03/19 03:55:22;;;;;;;;;10.00;8.00;;;;;8.79;82.82;102895.91;4957200;28;45320;-75
2022/03/19 03:57:48;;;;;;;;;9.00;8.00;;;;;8.81;82.27;102909.41;4973473;28;45445;-75
2022/03/19 04:00:14;;;;;;;;;5.50;5.00;;;;;8.74;85.43;102897.84;4974946;28;45627;-75
2022/03/19 04:02:40;;;;;;;;;9.00;8.00;;;;;8.63;88.66;102889.09;4939117;28;45561;-75
2022/03/19 04:05:07;;;;;;;;;8.75;6.00;;;;;8.52;86.20;102858.66;4955872;28;45502;-78
2022/03/19 04:07:33;;;;;;;;;8.00;8.00;;;;;8.82;88.31;102916.66;4955665;28;45546;-77
2022/03/19 04:09:58;;;;;;;;;8.00;8.00;;;;;8.83;95.96;102913.88;4961616;28;52635;-79
2022/03/19 04:12:23;;;;;;;;;7.50;7.50;;;;;8.37;84.19;102843.66;4966504;28;45613;-77
2022/03/19 04:14:49;;;;;;;;;9.75;9.00;;;;;8.91;84.66;102926.34;4955704;28;45523;-75
2022/03/19 04:17:15;;;;;;;;;9.75;8.50;;;;;8.92;91.75;102930.84;4971918;28;45386;-77
2022/03/19 04:19:41;;;;;;;;;13.75;10.50;;;;;8.72;86.52;102902.44;4974113;28;45975;-75
2022/03/19 04:22:06;;;;;;;;;10.00;9.75;;;;;8.18;92.49;102810.63;4944623;28;45517;-75
2022/03/19 04:24:31;;;;;;;;;7.50;7.25;;;;;8.72;86.54;102899.72;4955514;28;45639;-78
2022/03/19 04:26:57;;;;;;;;;11.00;11.00;;;;;8.73;87.21;102909.63;4976687;28;45695;-79
2022/03/19 04:29:23;;;;;;;;;13.00;9.00;;;;;8.34;86.07;102840.97;4975035;28;45620;-75
2022/03/19 04:31:49;;;;;;;;;13.00;8.75;;;;;8.86;88.96;102925.56;4970939;28;45549;-76
2022/03/19 04:34:14;;;;;;;;;10.75;9.50;;;;;8.49;89.39;102867.72;4975347;28;45589;-75
2022/03/19 04:36:41;;;;;;;;;10.25;9.25;;;;;8.88;97.56;102927.34;4961963;28;45513;-76
2022/03/19 04:39:08;;;;;;;;;11.00;10.00;;;;;8.87;97.45;102930.06;4954944;28;45347;-76
2022/03/19 04:41:36;;;;;;;;;7.50;4.00;;;;;8.63;96.84;102899.03;4966734;28;45283;-75
2022/03/19 04:44:01;;;;;;;;;11.75;9.50;;;;;8.86;88.99;102937.31;4975699;28;45554;-76
2022/03/19 04:46:27;;;;;;;;;16.00;13.75;;;;;8.83;91.86;102934.69;4971665;28;45526;-81
2022/03/19 04:48:53;;;;;;;;;13.00;11.00;;;;;8.76;89.18;102928.50;4961322;28;45400;-79
2022/03/19 04:51:20;;;;;;;;;16.00;14.50;;;;;8.75;90.14;102929.44;4957808;28;45512;-83
2022/03/19 04:53:53;;;;;;;;;16.50;15.50;;;;;8.73;90.91;102931.31;4955705;28;45536;-84
2022/03/19 04:56:20;;;;;;;;;16.25;15.00;;;;;8.68;91.85;102927.81;4951704;28;45492;-79
2022/03/19 04:58:45;;;;;;;;;13.75;12.50;;;;;8.69;97.50;102920.56;4976929;28;45449;-82
2022/03/19 05:01:11;;;;;;;;;14.00;12.50;;;;;8.53;92.36;102895.66;4973338;28;45420;-83
2022/03/19 05:03:36;;;;;;;;;19.25;15.00;;;;;8.60;93.28;102905.41;4973650;28;45469;-83
2022/03/19 05:06:02;;;;;;;;;14.25;11.00;;;;;8.52;94.70;102896.59;4968917;28;45250;-81
2022/03/19 05:08:28;;;;;;;;;15.75;15.25;;;;;8.65;97.59;102924.28;4974343;28;45751;-82
2022/03/19 05:13:37;;;;;;;;;19.00;16.50;;;;;8.31;100.00;102868.13;4964801;28;46201;-82
2022/03/19 05:16:02;;;;;;;;;21.00;17.50;;;;;8.45;98.52;102903.97;4974376;28;45282;-82
2022/03/19 05:18:28;;;;;;;;;22.50;17.50;;;;;8.55;100.00;102924.50;4982592;28;46169;-79
2022/03/19 05:20:53;;;;;;;;;17.25;13.50;;;;;8.02;98.89;102831.78;4983758;28;45406;-78
2022/03/19 05:23:18;;;;;;;;;14.25;13.50;;;;;8.47;100.00;102912.09;4962883;28;45158;-79
2022/03/19 05:25:44;;;;;;;;;20.50;16.50;;;;;8.42;98.74;102906.75;4963609;28;45500;-80
2022/03/19 05:28:09;;;;;;;;;20.50;17.75;;;;;8.47;98.64;102922.94;4985528;28;45223;-81
2022/03/19 05:30:35;;;;;;;;;20.00;18.00;;;;;8.48;100.00;102917.47;4975437;28;44965;-78
2022/03/19 05:33:01;;;;;;;;;21.25;20.50;;;;;8.48;100.00;102924.69;4971234;28;44873;-80
2022/03/19 05:35:28;;;;;;;;;25.75;18.50;;;;;8.49;100.00;102921.06;4984668;28;44991;-84
2022/03/19 05:37:53;;;;;;;;;21.00;16.25;;;;;8.47;100.00;102923.81;4977570;28;45647;-82
2022/03/19 05:40:19;;;;;;;;;21.25;17.50;;;;;8.47;100.00;102926.53;4963822;28;45352;-79
2022/03/19 05:42:45;;;;;;;;;20.75;17.25;;;;;7.80;100.00;102820.53;4981418;28;45267;-81
2022/03/19 05:45:10;;;;;;;;;21.00;18.00;;;;;8.27;100.00;102898.97;4990390;28;45024;-79
2022/03/19 05:47:39;;;;;;;;;23.00;20.50;;;;;8.42;100.00;102930.28;4971833;28;45078;-78
2022/03/19 05:50:06;;;;;;;;;21.50;17.00;;;;;8.14;100.00;102871.22;4977764;28;44896;-75
2022/03/19 05:52:31;;;;;;;;;25.75;21.75;;;;;8.39;100.00;102922.19;4976298;28;45279;-76
2022/03/19 05:54:56;;;;;;;;;24.75;23.75;;;;;8.34;100.00;102924.97;4974429;28;45126;-76
2022/03/19 05:57:22;;;;;;;;;30.00;23.75;;;;;8.26;100.00;102921.53;4990858;28;45567;-77
2022/03/19 05:59:47;;;;;;;;;25.75;22.00;;;;;8.24;100.00;102915.28;4987764;28;45128;-77
2022/03/19 06:02:12;;;;;;;;;30.75;27.00;;;;;8.30;100.00;102928.69;4980112;28;45131;-78
2022/03/19 06:04:38;;;;;;;;;27.75;20.25;;;;;8.20;100.00;102916.25;4982170;28;45186;-76
2022/03/19 06:07:04;;;;;;;;;25.50;24.25;;;;;8.29;100.00;102926.91;4987832;28;45266;-76
2022/03/19 06:09:30;;;;;;;;;36.50;28.50;;;;;8.18;100.00;102912.72;4990856;28;45015;-79
2022/03/19 06:11:55;;;;;;;;;32.50;27.25;;;;;7.90;100.00;102872.66;4990786;28;45165;-80
2022/03/19 06:14:20;;;;;;;;;25.50;23.00;;;;;8.27;100.00;102920.63;4990662;28;45040;-76
2022/03/19 06:16:46;;;;;;;;;22.25;20.75;;;;;8.27;100.00;102932.38;4991029;28;45407;-75
2022/03/19 06:19:12;;;;;;;;;30.75;26.50;;;;;8.26;100.00;102932.38;4978507;28;45144;-78
2022/03/19 06:21:40;;;;;;;;;35.50;28.50;;;;;7.67;100.00;102837.97;4990098;28;44921;-76
2022/03/19 06:24:07;;;;;;;;;42.50;32.25;;;;;8.20;100.00;102932.50;4990688;28;45088;-78
2022/03/19 06:26:33;;;;;;;;;29.00;25.00;;;;;8.22;100.00;102934.28;4990454;28;45799;-78
2022/03/19 06:28:58;;;;;;;;;33.75;32.00;;;;;6.46;100.00;102653.84;4988036;28;45331;-76
2022/03/19 06:31:24;;;;;;;;;29.00;24.50;;;;;8.16;100.00;102930.78;4974220;28;45243;-77
2022/03/19 06:33:49;;;;;;;;;30.25;27.00;;;;;8.22;100.00;102942.41;4965495;28;45468;-77
2022/03/19 06:38:59;;;;;;;;;50.75;38.00;;;;;8.17;100.00;102944.34;4971495;28;45556;-77
2022/03/19 06:41:25;;;;;;;;;28.75;28.75;;;;;8.18;100.00;102929.84;4948943;28;45375;-78
2022/03/19 06:43:51;;;;;;;;;36.75;31.50;;;;;8.09;100.00;102912.91;4959619;28;45582;-77
2022/03/19 06:46:17;;;;;;;;;34.75;31.50;;;;;7.90;100.00;102875.38;4979858;28;45595;-78
2022/03/19 06:48:42;;;;;;;;;35.75;30.00;;;;;8.20;100.00;102938.81;4990466;28;45524;-76
2022/03/19 06:51:08;;;;;;;;;35.75;33.25;;;;;8.12;100.00;102924.56;4985499;28;45328;-80
2022/03/19 06:53:33;;;;;;;;;33.50;31.75;;;;;7.81;100.00;102864.78;4987195;28;45421;-77
2022/03/19 06:55:58;;;;;;;;;46.00;41.00;;;;;7.83;100.00;102895.41;4981008;28;46326;-80
2022/03/19 06:58:24;;;;;;;;;53.00;41.00;;;;;7.89;100.00;102888.97;4980872;28;45617;-77
2022/03/19 07:00:50;;;;;;;;;41.50;35.25;;;;;8.18;100.00;102929.84;4977325;28;45512;-78
2022/03/19 07:03:15;;;;;;;;;40.00;35.75;;;;;8.24;100.00;102945.06;4980796;28;45407;-77
2022/03/19 07:05:40;;;;;;;;;35.25;34.00;;;;;8.11;100.00;102917.38;4982269;28;45905;-80
2022/03/19 07:08:08;;;;;;;;;42.75;36.25;;;;;7.88;100.00;102874.53;4980630;28;45666;-80
2022/03/19 07:10:34;;;;;;;;;41.00;36.00;;;;;8.18;100.00;102928.97;4980289;28;45386;-79
2022/03/19 07:13:00;;;;;;;;;52.25;43.25;;;;;8.27;100.00;102932.38;4980524;28;45470;-79
2022/03/19 07:15:29;;;;;;;;;58.75;43.25;;;;;7.91;100.00;102879.00;4982972;28;46597;-78
2022/03/19 07:17:57;;;;;;;;;56.50;38.50;;;;;8.26;100.00;102935.09;4981152;28;45272;-75
2022/03/19 07:20:23;;;;;;;;;50.75;39.00;;;;;7.63;100.00;102822.72;4992536;28;45106;-76
2022/03/19 07:23:05;;;;;;;;;48.25;38.00;;;;;8.30;100.00;102934.09;4987556;28;45283;-76
2022/03/19 07:25:38;;;;;;;;;66.00;48.50;;;;;8.34;100.00;102935.81;4981127;28;45596;-76
2022/03/19 07:28:06;;;;;;;;;51.75;39.25;;;;;8.26;100.00;102911.63;4976878;28;45299;-77
2022/03/19 07:30:32;;;;;;;;;67.00;47.50;;;;;8.18;100.00;102896.44;4967181;28;45401;-80
2022/03/19 07:32:58;;;;;;;;;47.00;38.75;;;;;8.47;100.00;102928.34;4961830;28;45403;-77
2022/03/19 07:35:24;;;;;;;;;47.75;41.00;;;;;8.16;100.00;102872.09;4984009;28;45744;-77
2022/03/19 07:37:50;;;;;;;;;56.25;42.25;;;;;8.55;100.00;102938.06;4983086;28;45386;-76
2022/03/19 07:41:45;;;;;;;;;57.50;45.00;;;;;8.33;100.00;102893.38;4978472;28;45322;-76
2022/03/19 07:43:10;;;;;;;;;63.50;44.25;;;;;8.62;100.00;102932.47;4976139;28;45511;-76
2022/03/19 07:45:38;;;;;;;;;53.25;43.50;;;;;8.57;100.00;102927.19;4975426;28;45414;-76
2022/03/19 07:48:03;;;;;;;;;49.00;43.25;;;;;8.40;100.00;102896.88;4976518;28;45533;-77
2022/03/19 07:50:29;;;;;;;;;60.00;45.00;;;;;8.57;100.00;102919.06;4974103;28;45591;-77
2022/03/19 07:52:55;;;;;;;;;55.75;42.25;;;;;8.63;100.00;102935.19;4976654;28;45344;-76
2022/03/19 07:55:21;;;;;;;;;57.00;44.00;;;;;8.59;100.00;102914.50;4979823;28;45427;-75
2022/03/19 07:57:46;;;;;;;;;60.25;45.50;;;;;8.62;100.00;102916.22;4980053;28;45411;-77
2022/03/19 08:00:12;;;;;;;;;59.00;44.75;;;;;8.66;100.00;102932.38;4975927;28;45430;-76
2022/03/19 08:02:41;;;;;;;;;50.75;41.25;;;;;8.70;100.00;102928.66;4981996;28;45114;-77
2022/03/19 08:05:08;;;;;;;;;60.25;47.25;;;;;8.52;100.00;102892.06;4975013;28;45963;-78
2022/03/19 08:07:34;;;;;;;;;64.25;46.75;;;;;8.74;100.00;102926.78;4976763;28;45387;-77
2022/03/19 08:10:00;;;;;;;;;57.25;45.25;;;;;8.75;100.00;102937.59;4974722;28;45409;-76
2022/03/19 08:12:26;;;;;;;;;63.75;50.00;;;;;8.77;100.00;102933.03;4974971;28;45387;-75
2022/03/19 08:14:51;;;;;;;;;63.00;45.75;;;;;8.40;100.00;102851.69;4975031;28;45373;-76
2022/03/19 08:17:17;;;;;;;;;61.25;50.75;;;;;8.85;100.00;102927.41;4975420;28;45462;-76
2022/03/19 08:19:43;;;;;;;;;58.25;45.75;;;;;8.44;100.00;102841.66;4975361;28;45383;-77
2022/03/19 08:22:08;;;;;;;;;63.25;45.50;;;;;8.93;100.00;102925.41;4975072;28;45367;-75
2022/03/19 08:24:35;;;;;;;;;65.50;49.25;;;;;8.54;100.00;102840.50;4974845;28;45398;-76
2022/03/19 08:27:01;;;;;;;;;64.00;49.25;;;;;8.52;100.00;102839.66;4974691;28;45661;-75
2022/03/19 08:29:27;;;;;;;;;61.75;47.25;;;;;8.76;100.00;102876.09;4974725;28;45308;-77
2022/03/19 08:31:53;;;;;;;;;56.75;46.50;;;;;9.00;100.00;102897.16;4985473;28;45590;-76
2022/03/19 08:34:19;;;;;;;;;60.50;47.25;;;;;8.91;100.00;102881.13;4980037;28;45591;-79
2022/03/19 08:36:44;;;;;;;;;63.00;47.00;;;;;9.04;100.00;102888.03;4974638;28;45324;-77
2022/03/19 08:41:54;;;;;;;;;59.50;46.75;;;;;9.13;100.00;102877.88;4973659;28;45248;-78
2022/03/19 08:44:20;;;;;;;;;65.00;48.50;;;;;9.10;100.00;102877.00;4969263;28;46037;-76
2022/03/19 08:46:45;;;;;;;;;59.00;46.75;;;;;9.14;100.00;102857.94;4984680;28;45490;-75
2022/03/19 08:49:10;;;;;;;;;66.25;48.75;;;;;9.43;100.00;102903.25;4976429;28;45918;-80
2022/03/19 08:51:42;;;;;;;;;66.75;48.75;;;;;9.18;100.00;102844.25;4988650;28;45435;-79
2022/03/19 08:54:09;;;;;;;;;58.25;44.25;;;;;9.56;100.00;102905.59;4992385;28;45856;-80
2022/03/19 08:56:36;;;;;;;;;59.75;45.00;;;;;9.29;100.00;102841.22;4986900;28;45305;-78
2022/03/19 08:59:02;;;;;;;;;65.25;50.25;;;;;9.41;100.00;102849.00;4978248;28;45466;-82
2022/03/19 09:01:27;;;;;;;;;53.25;44.00;;;;;9.70;100.00;102885.31;4974012;28;45515;-78
2022/03/19 09:03:53;;;;;;;;;54.25;43.25;;;;;9.65;100.00;102887.28;4973876;28;45632;-79
2022/03/19 09:06:19;;;;;;;;;67.50;53.25;;;;;9.64;100.00;102875.53;4972838;28;45853;-81
2022/03/19 09:08:45;;;;;;;;;60.50;48.00;;;;;9.84;100.00;102903.00;4974559;28;45400;-82
2022/03/19 09:11:11;;;;;;;;;63.00;48.00;;;;;9.91;100.00;102891.94;4974015;28;45593;-78
2022/03/19 09:13:37;;;;;;;;;50.75;37.25;;;;;9.67;100.00;102842.81;4956147;28;47399;-79
2022/03/19 09:16:04;;;;;;;;;62.50;50.00;;;;;10.03;100.00;102892.44;4973981;28;45453;-81
2022/03/19 09:18:29;;;;;;;;;63.75;48.25;;;;;9.85;100.00;102846.81;4973759;28;45480;-76
2022/03/19 09:20:55;;;;;;;;;61.50;47.25;;;;;10.10;100.00;102874.13;4973912;28;45481;-83
2022/03/19 09:23:20;;;;;;;;;63.00;51.00;;;;;8.56;100.00;102616.31;4972651;28;46304;-78
2022/03/19 09:25:46;;;;;;;;;63.25;49.50;;;;;10.23;100.00;102867.34;4975177;28;45541;-77
2022/03/19 09:28:11;;;;;;;;;70.50;51.25;;;;;9.97;100.00;102804.78;4973752;28;45433;-75
2022/03/19 09:30:37;;;;;;;;;64.50;49.75;;;;;9.57;100.00;102732.69;4971527;28;45739;-75
2022/03/19 09:33:02;;;;;;;;;59.50;46.75;;;;;10.46;100.00;102882.97;4955383;28;48108;-75
2022/03/19 09:35:28;;;;;;;;;57.50;46.50;;;;;10.21;100.00;102817.59;4972948;28;45458;-76
2022/03/19 09:37:53;;;;;;;;;60.50;48.25;;;;;10.59;100.00;102872.56;4972556;28;45520;-76
2022/03/19 09:40:19;;;;;;;;;63.75;49.75;;;;;10.14;100.00;102781.59;4952852;28;45577;-75
2022/03/19 09:42:53;;;;;;;;;60.75;49.25;;;;;10.47;100.00;102830.38;4952713;28;47305;-75
2022/03/19 09:45:20;;;;;;;;;62.75;49.00;;;;;10.78;100.00;102872.84;4954297;28;45411;-75
2022/03/19 09:47:46;;;;;;;;;57.75;47.00;;;;;10.57;100.00;102833.66;4956994;28;45366;-76
2022/03/19 09:50:12;;;;;;;;;58.25;47.75;;;;;10.89;100.00;102870.66;4965151;28;45197;-76
2022/03/19 09:52:41;;;;;;;;;62.50;46.75;;;;;10.94;100.00;102874.09;4968057;28;45474;-74
2022/03/19 09:55:09;;;;;;;;;62.00;48.00;;;;;10.93;100.00;102849.66;4963099;28;45019;-75
2022/03/19 09:57:35;;;;;;;;;61.75;48.25;;;;;11.03;100.00;102853.84;4959378;28;45470;-75
2022/03/19 10:00:00;;;;;;;;;57.00;45.00;;;;;11.00;100.00;102840.34;4974087;28;45632;-76
2022/03/19 10:02:25;;;;;;;;;57.75;45.75;;;;;11.11;99.48;102840.88;4964211;28;46492;-76
2022/03/19 10:04:52;;;;;;;;;60.50;46.75;;;;;10.94;99.12;102808.78;4966693;28;45388;-75
2022/03/19 10:10:11;;;;;;;;;62.50;45.50;;;;;10.88;96.90;102774.53;4968353;28;45468;-77
2022/03/19 10:12:39;;;;;;;;;60.25;49.00;;;;;11.23;98.46;102828.63;4955102;28;47484;-77
2022/03/19 10:15:09;;;;;;;;;52.50;43.25;;;;;10.90;97.29;102759.03;4973102;28;45556;-77
2022/03/19 10:17:36;;;;;;;;;55.75;43.25;;;;;10.95;96.24;102750.72;4955809;28;44775;-80
2022/03/19 10:20:09;;;;;;;;;53.50;44.75;;;;;11.34;100.00;102813.66;4973114;28;45486;-78
2022/03/19 10:22:38;;;;;;;;;54.50;45.25;;;;;11.46;96.30;102833.25;4972955;28;45512;-76
2022/03/19 10:25:07;;;;;;;;;54.25;44.00;;;;;11.31;94.03;102789.28;4947375;28;45543;-74
2022/03/19 10:27:38;;;;;;;;;54.50;45.50;;;;;11.55;91.35;102821.97;4954137;28;45466;-75
2022/03/19 10:30:09;;;;;;;;;55.75;45.25;;;;;11.60;93.02;102814.53;4972745;28;45214;-76
2022/03/19 10:32:35;;;;;;;;;59.00;46.00;;;;;11.50;91.62;102794.03;4972790;28;46148;-76
2022/03/19 10:35:02;;;;;;;;;54.00;39.25;;;;;11.67;89.48;102814.25;4975799;28;45303;-75
2022/03/19 10:37:39;;;;;;;;;57.75;44.00;;;;;11.31;88.11;102736.66;4981662;28;45446;-75
2022/03/19 10:40:07;;;;;;;;;55.00;40.00;;;;;11.66;87.89;102784.34;4972865;28;45590;-75
2022/03/19 10:42:41;;;;;;;;;45.75;38.50;;;;;11.82;87.15;102801.88;4960397;28;46510;-76
2022/03/19 10:45:09;;;;;;;;;52.25;42.25;;;;;11.64;87.64;102754.41;4974944;28;45489;-74
2022/03/19 10:47:41;;;;;;;;;55.75;44.25;;;;;11.92;87.94;102799.69;4976174;28;45321;-78
2022/03/19 10:50:07;;;;;;;;;57.00;45.00;;;;;11.82;85.57;102773.75;4972657;28;45426;-75
2022/03/19 10:52:36;;;;;;;;;51.00;42.00;;;;;11.63;85.86;102736.28;4980462;28;46164;-74
2022/03/19 10:55:04;;;;;;;;;60.25;45.75;;;;;12.02;85.52;102795.66;4982227;28;45516;-76
2022/03/19 10:57:30;;;;;;;;;53.75;41.50;;;;;11.89;88.59;102767.09;4972054;28;45716;-75
2022/03/19 10:59:56;;;;;;;;;49.75;40.75;;;;;11.94;84.14;102763.22;4972585;28;45390;-77
2022/03/19 11:02:28;;;;;;;;;53.75;42.50;;;;;12.06;84.86;102770.00;4971924;28;45485;-76
2022/03/19 11:04:55;;;;;;;;;54.25;45.25;;;;;11.94;82.65;102746.88;4968123;28;45511;-75
2022/03/19 11:07:24;;;;;;;;;52.00;41.75;;;;;12.25;82.71;102778.31;4971981;28;45300;-75
2022/03/19 11:09:58;;;;;;;;;54.25;43.50;;;;;11.90;79.66;102708.91;4971936;28;45560;-75
2022/03/19 11:12:27;;;;;;;;;50.75;41.00;;;;;12.36;78.51;102803.31;4971692;28;45690;-75
2022/03/19 11:14:56;;;;;;;;;50.25;41.00;;;;;12.42;76.84;102775.78;4971428;28;45484;-75
2022/03/19 11:17:36;;;;;;;;;49.25;41.25;;;;;12.49;76.92;102768.22;4972275;28;45599;-75
2022/03/19 11:20:10;;;;;;;;;50.75;41.50;;;;;12.53;76.44;102767.16;4971692;28;45640;-75
2022/03/19 11:22:42;;;;;;;;;53.00;42.00;;;;;12.42;73.14;102736.72;4981292;28;45391;-75
2022/03/19 11:25:26;;;;;;;;;50.25;40.00;;;;;12.63;74.52;102752.16;4953551;28;45593;-76
2022/03/19 11:27:55;;;;;;;;;50.50;40.25;;;;;12.67;78.08;102758.34;4970217;28;45544;-75